Time;durP1;ratioP1;P1;durP2;ratioP2;P2;SDS_P1;SDS_P2;PMS_P1;PMS_P2;Temp;Humidity;BMP_temperature;BMP_pressure;BME280_temperature;BME280_humidity;BME280_pressure;Samples;Min_cycle;Max_cycle;Signal;HPM_P1;HPM_P2
2022/05/16 00:02:21;;;;;;;8.25;4.40;;;20.50;65.80;;;;;;5043874;28;20035;-65
2022/05/16 00:04:49;;;;;;;12.70;4.57;;;20.50;65.90;;;;;;5059243;28;20029;-65
2022/05/16 00:07:17;;;;;;;11.88;4.55;;;20.50;65.90;;;;;;5047605;28;20052;-65
2022/05/16 00:09:42;;;;;;;11.98;4.75;;;20.40;66.00;;;;;;5048339;28;20041;-65
2022/05/16 00:12:10;;;;;;;9.88;4.38;;;20.40;66.50;;;;;;5047047;28;20030;-65
2022/05/16 00:14:38;;;;;;;13.18;4.55;;;20.40;66.50;;;;;;5053722;28;20037;-65
2022/05/16 00:17:03;;;;;;;13.48;5.05;;;20.30;66.50;;;;;;5035594;28;20026;-65
2022/05/16 00:19:29;;;;;;;11.38;4.70;;;20.30;66.50;;;;;;5039916;28;20094;-65
2022/05/16 00:21:56;;;;;;;12.07;4.50;;;20.30;66.50;;;;;;5045013;28;20115;-65
2022/05/16 00:24:26;;;;;;;11.40;4.60;;;20.30;66.50;;;;;;5035460;28;20029;-65
2022/05/16 00:26:52;;;;;;;8.95;4.13;;;20.30;66.50;;;;;;5044828;28;20109;-65
2022/05/16 00:29:18;;;;;;;12.65;4.80;;;20.30;66.90;;;;;;5048492;28;20533;-65
2022/05/16 00:31:44;;;;;;;9.70;4.78;;;20.30;67.10;;;;;;5052881;28;20024;-65
2022/05/16 00:34:10;;;;;;;9.60;4.35;;;20.20;66.90;;;;;;5052958;28;20124;-65
2022/05/16 00:36:36;;;;;;;10.40;4.50;;;20.20;67.00;;;;;;5048823;28;20022;-65
2022/05/16 00:39:02;;;;;;;12.48;4.53;;;20.20;67.30;;;;;;5033299;28;20033;-65
2022/05/16 00:41:28;;;;;;;11.07;3.85;;;20.10;67.20;;;;;;5040441;28;20504;-65
2022/05/16 00:43:57;;;;;;;10.38;4.43;;;20.10;67.20;;;;;;5048444;28;20068;-65
2022/05/16 00:46:26;;;;;;;12.18;4.05;;;20.10;67.20;;;;;;5044584;28;20029;-65
2022/05/16 00:48:51;;;;;;;13.10;4.15;;;20.10;67.10;;;;;;5035467;28;20033;-65
2022/05/16 00:51:29;;;;;;;13.13;4.28;;;20.10;67.10;;;;;;5041304;28;20026;-65
2022/05/16 00:54:00;;;;;;;10.65;4.38;;;20.10;67.10;;;;;;5038940;28;20059;-65
2022/05/16 00:56:28;;;;;;;11.48;4.35;;;20.10;67.10;;;;;;5048153;28;20029;-65
2022/05/16 00:58:55;;;;;;;10.65;4.15;;;20.00;67.00;;;;;;5053694;28;20040;-65
2022/05/16 01:06:54;;;;;;;11.50;3.85;;;20.00;67.40;;;;;;5047263;28;20101;-65
2022/05/16 01:09:20;;;;;;;9.77;4.10;;;19.90;67.50;;;;;;5041655;28;20654;-65
2022/05/16 01:11:46;;;;;;;12.82;4.32;;;19.90;67.90;;;;;;5039957;28;20041;-65
2022/05/16 01:14:38;;;;;;;11.88;4.40;;;19.80;68.40;;;;;;5063713;28;20033;-65
2022/05/16 01:17:04;;;;;;;10.10;4.18;;;19.70;68.40;;;;;;5050065;28;20060;-65
2022/05/16 01:19:30;;;;;;;11.27;4.25;;;19.70;68.50;;;;;;5038666;28;20118;-65
2022/05/16 01:21:59;;;;;;;11.80;4.28;;;19.70;68.70;;;;;;5049885;28;20515;-65
2022/05/16 01:24:26;;;;;;;10.98;4.28;;;19.70;68.80;;;;;;5046015;28;20032;-65
2022/05/16 01:26:52;;;;;;;13.20;4.32;;;19.70;69.10;;;;;;5041805;28;20024;-65
2022/05/16 01:29:19;;;;;;;10.20;4.13;;;19.70;69.50;;;;;;5050748;28;20066;-65
2022/05/16 01:31:46;;;;;;;12.25;4.20;;;19.70;69.50;;;;;;5058476;28;20776;-65
2022/05/16 01:34:12;;;;;;;10.93;3.92;;;19.60;69.60;;;;;;5051518;28;20499;-65
2022/05/16 01:36:38;;;;;;;11.55;4.20;;;19.60;69.80;;;;;;5051379;28;20385;-65
2022/05/16 01:39:04;;;;;;;9.45;4.45;;;19.60;69.80;;;;;;5045434;28;20506;-65
2022/05/16 01:41:30;;;;;;;14.60;4.35;;;19.60;69.90;;;;;;5037784;28;20567;-65
2022/05/16 01:43:58;;;;;;;12.73;4.05;;;19.60;69.90;;;;;;5043933;28;20100;-65
2022/05/16 01:46:29;;;;;;;12.05;3.95;;;19.60;70.00;;;;;;5045766;28;20032;-65
2022/05/16 01:48:55;;;;;;;11.02;4.20;;;19.60;70.10;;;;;;5048717;28;20032;-65
2022/05/16 01:51:21;;;;;;;15.98;4.57;;;19.60;70.10;;;;;;5051163;28;20037;-65
2022/05/16 01:53:47;;;;;;;13.68;3.97;;;19.60;70.40;;;;;;5047526;28;20416;-65
2022/05/16 01:56:13;;;;;;;13.55;4.18;;;19.60;70.40;;;;;;5050740;28;20021;-65
2022/05/16 01:58:41;;;;;;;13.82;4.50;;;19.50;70.70;;;;;;5049239;28;20147;-65
2022/05/16 02:01:07;;;;;;;10.82;3.92;;;19.50;71.50;;;;;;5048202;28;20032;-65
2022/05/16 02:03:36;;;;;;;9.43;4.10;;;19.40;71.20;;;;;;5043994;28;20027;-65
2022/05/16 02:06:02;;;;;;;13.85;4.18;;;19.40;71.30;;;;;;5045672;28;20017;-65
2022/05/16 02:08:27;;;;;;;11.48;4.50;;;19.30;71.70;;;;;;5032995;28;20512;-65
2022/05/16 02:10:53;;;;;;;14.57;4.25;;;19.30;72.00;;;;;;5039030;28;20041;-65
2022/05/16 02:13:19;;;;;;;11.40;4.30;;;19.30;72.20;;;;;;5045552;28;20040;-65
2022/05/16 02:15:45;;;;;;;9.07;4.07;;;19.20;72.70;;;;;;5045294;28;20029;-65
2022/05/16 02:18:11;;;;;;;9.35;4.10;;;19.20;72.80;;;;;;5036113;28;20082;-65
2022/05/16 02:20:38;;;;;;;13.75;4.25;;;19.20;72.80;;;;;;5043875;28;20021;-65
2022/05/16 02:25:50;;;;;;;12.63;4.03;;;19.20;72.90;;;;;;5054122;28;20071;-65
2022/05/16 02:28:18;;;;;;;12.57;4.40;;;19.20;73.00;;;;;;5038332;28;20041;-65
2022/05/16 02:30:45;;;;;;;10.65;3.85;;;19.10;73.20;;;;;;5041508;28;20728;-65
2022/05/16 02:33:13;;;;;;;10.35;3.85;;;19.10;73.40;;;;;;5044007;28;20028;-65
2022/05/16 02:35:38;;;;;;;15.15;4.45;;;19.10;73.40;;;;;;5052690;28;20037;-65
2022/05/16 02:38:06;;;;;;;11.80;4.65;;;19.10;73.50;;;;;;5035904;28;20075;-65
2022/05/16 02:40:33;;;;;;;14.23;4.07;;;19.10;73.60;;;;;;5052401;28;20024;-65
2022/05/16 02:42:59;;;;;;;11.73;4.40;;;19.10;74.10;;;;;;5047766;28;20139;-65
2022/05/16 02:45:29;;;;;;;15.32;4.15;;;19.10;74.40;;;;;;5042113;28;20024;-65
2022/05/16 02:47:55;;;;;;;15.48;4.40;;;19.10;74.40;;;;;;5047207;28;20095;-65
2022/05/16 02:50:23;;;;;;;12.27;4.07;;;19.10;74.60;;;;;;5060763;28;20482;-65
2022/05/16 02:52:53;;;;;;;9.75;4.28;;;19.10;74.70;;;;;;5056801;28;20063;-65
2022/05/16 02:55:20;;;;;;;13.85;4.10;;;19.10;75.00;;;;;;5039518;28;20119;-66
2022/05/16 02:57:46;;;;;;;12.88;4.10;;;19.10;75.20;;;;;;5045724;28;20025;-65
2022/05/16 03:00:16;;;;;;;12.57;3.95;;;19.10;75.00;;;;;;5049059;28;20046;-65
2022/05/16 03:02:42;;;;;;;16.00;4.33;;;19.00;75.00;;;;;;5057520;28;20078;-65
2022/05/16 03:05:08;;;;;;;14.38;3.90;;;19.00;75.00;;;;;;5048148;28;20090;-65
2022/05/16 03:07:35;;;;;;;12.70;3.88;;;19.00;75.10;;;;;;5037334;28;20033;-65
2022/05/16 03:10:01;;;;;;;14.52;4.30;;;19.00;75.10;;;;;;5050343;28;20064;-65
2022/05/16 03:12:27;;;;;;;12.77;4.30;;;19.00;75.30;;;;;;5058756;28;20162;-65
2022/05/16 03:14:53;;;;;;;13.82;4.78;;;18.90;76.10;;;;;;5047677;28;20113;-65
2022/05/16 03:17:18;;;;;;;14.85;4.60;;;18.90;76.00;;;;;;5043647;28;20032;-65
2022/05/16 03:19:44;;;;;;;13.32;4.30;;;18.90;76.00;;;;;;5057392;28;20020;-65
2022/05/16 03:22:10;;;;;;;14.73;4.85;;;18.80;76.70;;;;;;5043740;28;20513;-65
2022/05/16 03:24:36;;;;;;;13.90;4.22;;;18.80;77.30;;;;;;5057876;28;20515;-65
2022/05/16 03:27:02;;;;;;;12.20;4.28;;;18.70;77.10;;;;;;5048755;28;20029;-65
2022/05/16 03:29:28;;;;;;;12.75;4.68;;;18.70;77.00;;;;;;5047244;28;20151;-65
2022/05/16 03:31:55;;;;;;;10.68;4.43;;;18.70;77.20;;;;;;5058649;28;20466;-65
2022/05/16 03:34:20;;;;;;;14.25;4.18;;;18.70;77.10;;;;;;5049686;28;20040;-65
2022/05/16 03:36:46;;;;;;;14.68;4.45;;;18.60;77.40;;;;;;5046543;28;20018;-65
2022/05/16 03:41:57;;;;;;;14.13;5.03;;;18.50;78.00;;;;;;5047416;28;20057;-65
2022/05/16 03:44:23;;;;;;;15.05;4.95;;;18.50;77.80;;;;;;5054922;28;20421;-65
2022/05/16 03:46:49;;;;;;;17.17;4.90;;;18.50;77.70;;;;;;5049082;28;20610;-66
2022/05/16 03:49:15;;;;;;;14.07;4.10;;;18.50;77.40;;;;;;5041104;28;20026;-65
2022/05/16 03:51:41;;;;;;;13.32;4.72;;;18.50;77.10;;;;;;5038485;28;20048;-65
2022/05/16 03:54:07;;;;;;;16.05;5.00;;;18.50;76.90;;;;;;5050964;28;20484;-65
2022/05/16 03:56:33;;;;;;;14.00;5.10;;;18.40;77.00;;;;;;5047726;28;20025;-65
2022/05/16 03:59:03;;;;;;;13.50;4.57;;;18.40;78.70;;;;;;5041105;28;20036;-65
2022/05/16 04:01:30;;;;;;;14.48;5.45;;;18.30;78.90;;;;;;5043729;28;20024;-65
2022/05/16 04:04:02;;;;;;;28.33;5.00;;;18.30;79.90;;;;;;5043742;28;20029;-65
2022/05/16 04:06:28;;;;;;;16.13;5.03;;;18.30;78.90;;;;;;5042167;28;20538;-65
2022/05/16 04:08:54;;;;;;;11.77;4.53;;;18.30;78.60;;;;;;5043555;28;20029;-66
2022/05/16 04:11:20;;;;;;;15.45;5.13;;;18.20;78.50;;;;;;5048462;28;20048;-66
2022/05/16 04:13:47;;;;;;;14.77;5.20;;;18.20;78.90;;;;;;5054877;28;20032;-66
2022/05/16 04:16:13;;;;;;;12.18;4.55;;;18.20;79.20;;;;;;5050019;28;20171;-65
2022/05/16 04:18:41;;;;;;;17.80;4.55;;;18.20;79.40;;;;;;5042375;28;20017;-65
2022/05/16 04:21:07;;;;;;;13.77;4.53;;;18.20;79.70;;;;;;5046415;28;20675;-65
2022/05/16 04:23:33;;;;;;;15.25;4.82;;;18.10;80.60;;;;;;5045425;28;20025;-65
2022/05/16 04:25:58;;;;;;;12.20;4.80;;;18.10;81.50;;;;;;5036937;28;20033;-67
2022/05/16 04:28:24;;;;;;;13.55;4.65;;;18.10;82.30;;;;;;5036260;28;20033;-65
2022/05/16 04:30:50;;;;;;;16.00;5.30;;;18.00;83.60;;;;;;5054233;28;20131;-66
2022/05/16 04:33:18;;;;;;;30.95;5.70;;;17.90;84.10;;;;;;5030144;28;20104;-65
2022/05/16 04:35:44;;;;;;;16.67;4.85;;;17.80;85.10;;;;;;5038928;28;20033;-67
2022/05/16 04:38:09;;;;;;;16.55;5.18;;;17.70;86.00;;;;;;5046973;28;20032;-66
2022/05/16 04:42:40;;;;;;;17.33;5.10;;;17.60;85.90;;;;;;5034338;28;20036;-65
2022/05/16 04:43:21;;;;;;;14.68;4.40;;;17.60;86.40;;;;;;5047479;28;20037;-67
2022/05/16 04:45:47;;;;;;;15.40;4.85;;;17.50;87.20;;;;;;5036302;28;20056;-65
2022/05/16 04:48:12;;;;;;;14.07;4.32;;;17.50;87.70;;;;;;5040648;28;20028;-66
2022/05/16 04:50:38;;;;;;;23.50;5.15;;;17.40;89.20;;;;;;5053538;28;20070;-67
2022/05/16 04:53:04;;;;;;;14.60;4.53;;;17.40;87.90;;;;;;5049165;28;20060;-66
2022/05/16 04:55:30;;;;;;;15.93;4.80;;;17.50;88.60;;;;;;5044366;28;20041;-66
2022/05/16 04:57:57;;;;;;;14.02;4.68;;;17.40;89.80;;;;;;5041812;28;20045;-66
2022/05/16 05:00:23;;;;;;;16.02;5.38;;;17.30;89.40;;;;;;5049509;28;20032;-66
2022/05/16 05:02:50;;;;;;;18.83;4.47;;;17.40;89.40;;;;;;5044570;28;20029;-66
2022/05/16 05:05:16;;;;;;;17.88;4.65;;;17.40;89.00;;;;;;5044111;28;20108;-66
2022/05/16 05:07:43;;;;;;;17.98;5.20;;;17.40;89.40;;;;;;5031840;28;20029;-66
2022/05/16 05:15:40;;;;;;;14.80;4.82;;;17.40;89.60;;;;;;5039791;28;20122;-66
2022/05/16 05:18:07;;;;;;;14.80;4.68;;;17.40;89.80;;;;;;5042436;28;20464;-65
2022/05/16 05:20:33;;;;;;;17.52;4.93;;;17.40;90.20;;;;;;5040719;28;20041;-66
2022/05/16 05:23:00;;;;;;;19.33;4.93;;;17.40;90.10;;;;;;5039350;28;20025;-66
2022/05/16 05:25:26;;;;;;;13.10;4.47;;;17.50;90.10;;;;;;5035498;28;20035;-66
2022/05/16 05:27:53;;;;;;;13.68;4.03;;;17.50;90.30;;;;;;5043866;28;20435;-67
2022/05/16 05:30:22;;;;;;;14.93;4.28;;;17.60;90.30;;;;;;5043263;28;20131;-66
2022/05/16 05:32:47;;;;;;;15.10;4.43;;;17.60;90.20;;;;;;5043583;28;20500;-65
2022/05/16 05:35:14;;;;;;;18.40;4.45;;;17.70;90.30;;;;;;5046588;28;20583;-65
2022/05/16 05:37:40;;;;;;;16.15;4.53;;;17.70;90.00;;;;;;5038347;28;20029;-65
2022/05/16 05:40:07;;;;;;;15.23;5.15;;;17.90;89.60;;;;;;5038451;28;20029;-66
2022/05/16 05:42:34;;;;;;;13.48;4.45;;;18.00;89.10;;;;;;5037211;28;20049;-66
2022/05/16 05:45:00;;;;;;;18.90;4.35;;;18.20;88.10;;;;;;5034651;28;20496;-66
2022/05/16 05:47:27;;;;;;;18.40;5.07;;;18.30;87.20;;;;;;5032864;28;20416;-66
2022/05/16 05:49:53;;;;;;;17.98;3.88;;;18.50;86.40;;;;;;5041716;28;20033;-66
2022/05/16 05:52:19;;;;;;;18.20;4.20;;;18.70;85.30;;;;;;5035357;28;20385;-66
2022/05/16 05:54:46;;;;;;;21.55;4.20;;;18.90;84.40;;;;;;5032377;28;20061;-66
2022/05/16 05:57:13;;;;;;;16.38;3.70;;;19.00;83.50;;;;;;5036650;28;20021;-67
2022/05/16 05:59:38;;;;;;;14.45;3.40;;;19.10;82.50;;;;;;5038343;28;20512;-66
2022/05/16 06:02:06;;;;;;;16.20;4.15;;;19.20;81.60;;;;;;5049029;28;20053;-66
2022/05/16 06:04:32;;;;;;;16.23;4.13;;;19.20;81.60;;;;;;5032942;28;20041;-66
2022/05/16 06:06:58;;;;;;;14.00;3.45;;;19.30;81.10;;;;;;5030726;28;20025;-66
2022/05/16 06:09:24;;;;;;;12.10;3.53;;;19.40;80.20;;;;;;5041747;28;20024;-66
2022/05/16 06:11:50;;;;;;;14.30;3.85;;;19.50;79.90;;;;;;5035015;28;20075;-66
2022/05/16 06:14:16;;;;;;;16.23;3.85;;;19.50;79.40;;;;;;5031071;28;20033;-66
2022/05/16 06:16:42;;;;;;;18.75;3.95;;;19.50;79.10;;;;;;5033396;28;20030;-67
2022/05/16 06:19:09;;;;;;;18.33;4.25;;;19.40;79.30;;;;;;5033126;28;20025;-66
2022/05/16 06:21:35;;;;;;;18.83;4.22;;;19.30;79.40;;;;;;5040683;28;20086;-67
2022/05/16 06:24:01;;;;;;;11.38;3.47;;;19.30;79.50;;;;;;5042471;28;20025;-66
2022/05/16 06:26:28;;;;;;;12.40;3.60;;;19.50;78.50;;;;;;5035588;28;20036;-67
2022/05/16 06:28:57;;;;;;;13.50;3.60;;;19.90;77.50;;;;;;5037835;28;20018;-67
2022/05/16 06:31:23;;;;;;;16.13;3.90;;;20.30;75.10;;;;;;5046034;28;20098;-66
2022/05/16 06:33:49;;;;;;;15.57;3.20;;;21.00;72.30;;;;;;5043040;28;20477;-67
2022/05/16 06:36:16;;;;;;;13.23;3.38;;;21.70;68.60;;;;;;5047086;28;20040;-67
2022/05/16 06:38:43;;;;;;;12.90;3.50;;;22.50;63.70;;;;;;5046111;28;20025;-67
2022/05/16 06:41:08;;;;;;;17.17;3.15;;;23.50;59.00;;;;;;5041474;28;20045;-67
2022/05/16 06:43:35;;;;;;;14.93;3.00;;;24.30;55.60;;;;;;5044271;28;20055;-66
2022/05/16 06:46:02;;;;;;;11.77;3.20;;;25.10;52.50;;;;;;5042225;28;20057;-67
2022/05/16 06:48:31;;;;;;;17.02;2.97;;;25.60;49.70;;;;;;5041461;28;20028;-67
2022/05/16 06:50:57;;;;;;;15.82;3.00;;;26.10;48.40;;;;;;5044507;28;20519;-67
2022/05/16 06:53:27;;;;;;;13.73;3.00;;;26.50;46.60;;;;;;5048479;28;20033;-67
2022/05/16 06:55:54;;;;;;;14.43;3.28;;;26.90;45.70;;;;;;5050134;28;20082;-67
2022/05/16 06:58:19;;;;;;;14.05;3.15;;;27.30;44.80;;;;;;5036364;28;20029;-67
2022/05/16 07:00:46;;;;;;;10.07;2.65;;;27.80;43.20;;;;;;5039571;28;20033;-67
2022/05/16 07:03:12;;;;;;;14.82;3.08;;;27.70;41.90;;;;;;5045793;28;20021;-67
2022/05/16 07:05:40;;;;;;;13.95;2.60;;;28.10;41.20;;;;;;5044277;28;20040;-67
2022/05/16 07:08:06;;;;;;;12.35;2.92;;;28.50;40.60;;;;;;5040227;28;20025;-67
2022/05/16 07:10:32;;;;;;;16.23;2.85;;;28.90;39.40;;;;;;5044862;28;20033;-67
2022/05/16 07:12:58;;;;;;;14.85;3.38;;;28.90;38.40;;;;;;5041511;28;20515;-67
2022/05/16 07:15:25;;;;;;;14.20;2.85;;;28.70;38.80;;;;;;5039495;28;20507;-67
2022/05/16 07:17:51;;;;;;;14.25;2.90;;;28.40;39.90;;;;;;5044890;28;20032;-67
2022/05/16 07:20:18;;;;;;;16.38;3.33;;;28.10;40.00;;;;;;5040185;28;20020;-67
2022/05/16 07:22:46;;;;;;;12.45;2.75;;;27.80;41.60;;;;;;5035555;28;20497;-67
2022/05/16 07:25:13;;;;;;;14.90;3.10;;;27.40;42.70;;;;;;5037108;28;20036;-67
2022/05/16 07:27:57;;;;;;;14.82;3.00;;;26.90;43.50;;;;;;5042137;28;20044;-67
2022/05/16 07:30:34;;;;;;;12.80;2.50;;;26.50;45.00;;;;;;5043812;28;20033;-67
2022/05/16 07:33:01;;;;;;;13.40;2.90;;;26.30;45.90;;;;;;5039936;28;20025;-67
2022/05/16 07:35:31;;;;;;;11.27;2.45;;;26.20;45.60;;;;;;5043898;28;20086;-67
2022/05/16 07:37:57;;;;;;;14.82;2.53;;;26.30;45.90;;;;;;5049395;28;20155;-67
2022/05/16 07:40:26;;;;;;;12.20;2.13;;;26.20;45.80;;;;;;5041974;28;20420;-67
2022/05/16 07:42:54;;;;;;;10.88;2.20;;;26.20;46.10;;;;;;5046670;28;20471;-67
2022/05/16 07:45:26;;;;;;;11.63;2.25;;;26.20;45.80;;;;;;5045197;28;20079;-67
2022/05/16 07:47:52;;;;;;;9.27;2.20;;;26.30;45.00;;;;;;5047502;28;20028;-66
2022/05/16 07:50:18;;;;;;;13.35;2.40;;;26.40;45.40;;;;;;5053891;28;20100;-67
2022/05/16 07:52:48;;;;;;;10.55;2.08;;;26.50;44.80;;;;;;5040351;28;20108;-67
2022/05/16 07:55:20;;;;;;;8.85;2.33;;;26.60;45.10;;;;;;5045041;28;20033;-67
2022/05/16 07:57:46;;;;;;;12.63;2.25;;;26.70;44.00;;;;;;5043487;28;20033;-67
2022/05/16 08:00:13;;;;;;;10.00;2.20;;;26.80;43.80;;;;;;5044748;28;20025;-67
2022/05/16 08:02:39;;;;;;;14.55;2.42;;;27.00;43.60;;;;;;5039433;28;20033;-67
2022/05/16 08:05:08;;;;;;;9.07;1.98;;;27.30;42.60;;;;;;5048084;28;20020;-67
2022/05/16 08:07:34;;;;;;;9.13;2.08;;;27.40;42.10;;;;;;5043333;28;20036;-66
2022/05/16 08:12:44;;;;;;;9.85;2.53;;;27.50;40.90;;;;;;5042992;28;20076;-67
2022/05/16 08:15:10;;;;;;;9.45;2.00;;;27.60;41.60;;;;;;5032766;28;20049;-67
2022/05/16 08:17:54;;;;;;;11.70;2.53;;;27.70;40.50;;;;;;5043010;28;20021;-66
2022/05/16 08:20:21;;;;;;;9.27;1.80;;;27.60;40.70;;;;;;5036987;28;20025;-66
2022/05/16 08:22:47;;;;;;;9.85;1.90;;;27.60;40.30;;;;;;5042885;28;20029;-67
2022/05/16 08:25:14;;;;;;;7.35;1.67;;;27.70;40.60;;;;;;5043027;28;20137;-66
2022/05/16 08:27:41;;;;;;;10.38;1.80;;;27.80;39.80;;;;;;5045026;28;20087;-66
2022/05/16 08:30:08;;;;;;;8.75;1.70;;;27.40;41.70;;;;;;5048977;28;20025;-66
2022/05/16 08:32:34;;;;;;;7.55;1.92;;;27.30;40.80;;;;;;5034133;28;20590;-67
2022/05/16 08:35:04;;;;;;;7.72;1.90;;;27.10;41.30;;;;;;5039752;28;20033;-66
2022/05/16 08:40:15;;;;;;;10.30;1.90;;;27.00;41.90;;;;;;5038080;28;20044;-67
2022/05/16 08:43:08;;;;;;;10.75;1.75;;;26.70;42.40;;;;;;5044192;28;20046;-66
2022/05/16 08:45:37;;;;;;;6.78;1.60;;;26.60;42.10;;;;;;5042983;28;20103;-67
2022/05/16 08:48:24;;;;;;;7.13;1.55;;;26.80;42.10;;;;;;5044404;28;20037;-67
2022/05/16 08:51:04;;;;;;;9.30;1.90;;;27.10;41.40;;;;;;5039531;28;20112;-67
2022/05/16 08:53:45;;;;;;;9.05;1.80;;;27.40;41.30;;;;;;5041022;28;20083;-67
2022/05/16 08:56:16;;;;;;;8.98;2.00;;;27.80;39.40;;;;;;5051901;28;20033;-67
2022/05/16 08:58:58;;;;;;;7.53;1.65;;;28.00;39.00;;;;;;5042688;28;20035;-66
2022/05/16 09:01:34;;;;;;;7.70;1.73;;;28.20;38.30;;;;;;5039446;28;20403;-66
2022/05/16 09:04:02;;;;;;;9.98;1.88;;;28.30;38.10;;;;;;5042190;28;20020;-66
2022/05/16 09:06:40;;;;;;;12.23;2.00;;;28.40;38.90;;;;;;5044202;28;20060;-67
2022/05/16 09:09:16;;;;;;;7.68;1.80;;;28.30;39.30;;;;;;5043374;28;20063;-67
2022/05/16 09:12:23;;;;;;;11.85;2.22;;;28.30;38.90;;;;;;5040805;28;20399;-66
2022/05/16 09:15:11;;;;;;;9.02;1.88;;;28.30;38.60;;;;;;5043400;28;20041;-67
2022/05/16 09:18:01;;;;;;;9.10;2.10;;;28.50;38.00;;;;;;5034114;28;20123;-67
2022/05/16 09:20:54;;;;;;;8.40;1.63;;;28.70;37.60;;;;;;5036841;28;20032;-67
2022/05/16 09:23:42;;;;;;;8.00;1.73;;;28.90;37.00;;;;;;5037937;28;20703;-66
2022/05/16 09:26:27;;;;;;;7.93;2.00;;;29.20;35.80;;;;;;5043472;28;20116;-66
2022/05/16 09:29:01;;;;;;;8.35;1.63;;;29.10;35.20;;;;;;5042414;28;20025;-66
2022/05/16 09:31:34;;;;;;;10.50;2.00;;;29.10;35.70;;;;;;5039821;28;20487;-67
2022/05/16 09:34:00;;;;;;;7.53;1.50;;;29.00;35.50;;;;;;5039472;28;20116;-66
2022/05/16 09:36:38;;;;;;;14.98;2.10;;;28.90;36.20;;;;;;5038553;28;20055;-66
2022/05/16 09:39:06;;;;;;;11.90;1.90;;;28.90;36.80;;;;;;5040663;28;20025;-67
2022/05/16 09:41:45;;;;;;;13.75;1.83;;;29.30;37.00;;;;;;5038538;28;20053;-67
2022/05/16 09:44:32;;;;;;;8.05;1.83;;;29.80;34.60;;;;;;5041427;28;20029;-67
2022/05/16 09:47:16;;;;;;;9.02;1.75;;;30.20;34.00;;;;;;5039286;28;20040;-67
2022/05/16 09:49:42;;;;;;;8.02;1.83;;;30.60;33.10;;;;;;5041243;28;20041;-67
2022/05/16 09:52:21;;;;;;;9.85;1.60;;;30.90;32.40;;;;;;5039159;28;20440;-67
2022/05/16 09:55:03;;;;;;;8.45;1.40;;;31.20;31.10;;;;;;5042835;28;20040;-67
2022/05/16 09:57:32;;;;;;;7.05;1.55;;;31.50;31.00;;;;;;5048807;28;20040;-66
2022/05/16 10:00:24;;;;;;;7.55;1.65;;;31.80;31.60;;;;;;5033068;28;20060;-66
2022/05/16 10:03:19;;;;;;;7.28;1.60;;;31.90;30.90;;;;;;5038755;28;20032;-66
2022/05/16 10:05:50;;;;;;;9.32;1.60;;;32.00;30.40;;;;;;5037288;28;20186;-66
2022/05/16 10:08:32;;;;;;;11.07;1.63;;;32.20;30.00;;;;;;5039080;28;20028;-66
2022/05/16 10:11:02;;;;;;;5.72;1.67;;;32.50;29.60;;;;;;5037192;28;20416;-67
2022/05/16 10:13:28;;;;;;;6.70;1.40;;;32.70;28.50;;;;;;5034210;28;20060;-67
2022/05/16 10:15:56;;;;;;;5.10;1.25;;;32.90;28.60;;;;;;5028858;28;20488;-67
2022/05/16 10:18:24;;;;;;;11.27;1.60;;;33.20;28.50;;;;;;5036967;28;20032;-67
2022/05/16 10:21:02;;;;;;;6.88;1.40;;;33.50;26.80;;;;;;5042980;28;20030;-66
2022/05/16 10:23:38;;;;;;;8.77;1.38;;;33.70;27.30;;;;;;5051853;28;20577;-66
2022/05/16 10:26:12;;;;;;;5.22;1.40;;;33.50;27.30;;;;;;5046650;28;20393;-66
2022/05/16 10:28:46;;;;;;;7.80;1.40;;;33.00;27.50;;;;;;5048634;28;20111;-66
2022/05/16 10:34:15;;;;;;;7.33;1.60;;;32.10;28.50;;;;;;5037335;28;20567;-66
2022/05/16 10:36:47;;;;;;;7.53;1.30;;;31.60;29.30;;;;;;5039064;28;20285;-65
2022/05/16 10:39:18;;;;;;;6.15;1.40;;;30.90;30.00;;;;;;5044033;28;20040;-67
2022/05/16 10:41:57;;;;;;;8.55;1.60;;;30.30;30.40;;;;;;5027827;28;20123;-66
2022/05/16 10:44:40;;;;;;;6.40;1.30;;;29.80;31.00;;;;;;5038910;28;20041;-66
2022/05/16 10:47:31;;;;;;;7.32;1.42;;;29.50;31.80;;;;;;5035734;28;20044;-66
2022/05/16 10:50:06;;;;;;;6.65;1.35;;;29.20;32.20;;;;;;5029646;28;20447;-65
2022/05/16 10:53:16;;;;;;;7.15;1.33;;;28.90;32.80;;;;;;5032087;28;20112;-65
2022/05/16 10:56:03;;;;;;;8.85;1.50;;;28.50;33.20;;;;;;5034329;28;20124;-65
2022/05/16 10:58:59;;;;;;;6.45;1.23;;;28.10;33.60;;;;;;5042997;28;20043;-66
2022/05/16 11:01:34;;;;;;;3.90;1.40;;;27.80;34.20;;;;;;5033829;28;20041;-65
2022/05/16 11:04:38;;;;;;;9.23;1.48;;;27.50;34.70;;;;;;5038746;28;20029;-66
2022/05/16 11:07:30;;;;;;;7.22;1.50;;;27.30;35.40;;;;;;5031047;28;22087;-65
2022/05/16 11:10:10;;;;;;;8.13;1.40;;;27.10;36.10;;;;;;5038464;28;20124;-65
2022/05/16 11:12:48;;;;;;;9.73;1.50;;;27.00;37.00;;;;;;5042946;28;20127;-65
2022/05/16 11:15:16;;;;;;;8.15;1.45;;;26.90;37.60;;;;;;5043855;28;20045;-65
2022/05/16 11:18:06;;;;;;;4.65;1.30;;;26.70;37.80;;;;;;5037357;28;20091;-65
2022/05/16 11:20:38;;;;;;;17.25;1.80;;;26.60;38.40;;;;;;5039081;28;20040;-65
2022/05/16 11:23:31;;;;;;;8.23;1.50;;;26.50;39.30;;;;;;5040933;28;20067;-65
2022/05/16 11:26:11;;;;;;;7.15;1.30;;;26.50;39.80;;;;;;5035652;28;20044;-65
2022/05/16 11:29:17;;;;;;;7.18;1.85;;;26.50;39.70;;;;;;5031917;28;20030;-66
2022/05/16 11:31:37;;;;;;;6.65;1.52;;;26.60;39.50;;;;;;5042711;28;20442;-65
2022/05/16 11:34:10;;;;;;;7.25;1.40;;;26.70;40.50;;;;;;5039569;28;20037;-66
2022/05/16 11:36:45;;;;;;;9.52;1.60;;;28.20;35.90;;;;;;5044876;28;20098;-65
2022/05/16 11:39:29;;;;;;;5.57;1.73;;;28.20;36.10;;;;;;5039105;28;20043;-66
2022/05/16 11:42:23;;;;;;;8.63;1.50;;;29.40;34.50;;;;;;5045184;28;20516;-66
2022/05/16 11:45:14;;;;;;;4.72;1.50;;;31.10;31.70;;;;;;5055880;28;20037;-66
2022/05/16 11:48:04;;;;;;;9.55;1.67;;;30.70;31.90;;;;;;5053150;28;20472;-66
2022/05/16 11:50:49;;;;;;;8.70;1.30;;;30.90;31.10;;;;;;5045463;28;20404;-66
2022/05/16 11:53:33;;;;;;;6.65;1.20;;;31.00;31.30;;;;;;5039277;28;20522;-66
2022/05/16 12:01:38;;;;;;;9.55;1.55;;;31.10;31.30;;;;;;5035203;28;20049;-66
2022/05/16 12:04:15;;;;;;;4.93;1.30;;;32.00;30.40;;;;;;5040051;28;20029;-66
2022/05/16 12:06:45;;;;;;;6.68;1.45;;;33.30;28.80;;;;;;5042366;28;20068;-66
2022/05/16 12:09:17;;;;;;;4.75;1.40;;;33.40;27.60;;;;;;5041062;28;20037;-66
2022/05/16 12:12:19;;;;;;;7.00;1.48;;;34.10;26.80;;;;;;5039880;28;20042;-66
2022/05/16 12:15:24;;;;;;;5.30;1.40;;;35.30;26.20;;;;;;5033279;28;20527;-66
2022/05/16 12:18:00;;;;;;;5.10;1.30;;;34.60;26.70;;;;;;5038189;28;20097;-66
2022/05/16 12:20:58;;;;;;;4.63;1.25;;;33.40;28.20;;;;;;5045312;28;20048;-66
2022/05/16 12:23:49;;;;;;;6.30;1.60;;;33.50;27.80;;;;;;5047285;28;20033;-66
2022/05/16 12:26:27;;;;;;;7.05;1.50;;;32.80;28.20;;;;;;5036395;28;20021;-66
2022/05/16 12:29:11;;;;;;;7.45;1.63;;;31.90;29.40;;;;;;5039427;28;20063;-66
2022/05/16 12:31:50;;;;;;;5.95;1.70;;;31.70;29.80;;;;;;5040133;28;20115;-66
2022/05/16 12:34:35;;;;;;;6.70;1.45;;;31.40;30.10;;;;;;5039291;28;20051;-66
2022/05/16 12:37:05;;;;;;;6.80;1.70;;;30.80;31.70;;;;;;5040267;28;20029;-65
2022/05/16 12:39:59;;;;;;;11.88;1.80;;;30.40;32.50;;;;;;5038512;28;20054;-65
2022/05/16 12:43:09;;;;;;;12.65;1.70;;;29.90;33.50;;;;;;5033233;28;20044;-66
2022/05/16 12:46:06;;;;;;;6.35;1.50;;;29.60;34.50;;;;;;5040705;28;20074;-65
2022/05/16 12:49:02;;;;;;;16.05;1.50;;;29.20;34.90;;;;;;5041557;28;20597;-65
2022/05/16 12:51:59;;;;;;;11.18;1.98;;;28.90;35.80;;;;;;5037839;28;20033;-65
2022/05/16 12:54:54;;;;;;;7.50;1.65;;;28.60;36.50;;;;;;5037202;28;20571;-65
2022/05/16 12:57:48;;;;;;;7.43;1.60;;;28.40;36.60;;;;;;5038313;28;20492;-65
2022/05/16 13:00:48;;;;;;;7.10;1.70;;;28.20;37.10;;;;;;5037552;28;20041;-66
2022/05/16 13:03:14;;;;;;;6.50;1.50;;;28.50;36.10;;;;;;5035349;28;20076;-65
2022/05/16 13:05:47;;;;;;;5.25;1.83;;;28.90;35.60;;;;;;5042618;28;20060;-65
2022/05/16 13:08:42;;;;;;;7.20;1.55;;;29.10;36.20;;;;;;5041988;28;20491;-66
2022/05/16 13:11:16;;;;;;;5.68;1.55;;;29.30;35.00;;;;;;5040225;28;20021;-65
2022/05/16 13:13:56;;;;;;;8.85;1.85;;;29.30;34.90;;;;;;5033936;28;20033;-65
2022/05/16 13:16:39;;;;;;;9.17;1.70;;;29.40;35.30;;;;;;5031878;28;20057;-65
2022/05/16 13:19:15;;;;;;;12.50;2.20;;;29.40;35.20;;;;;;5043260;28;20283;-66
2022/05/16 13:21:53;;;;;;;5.63;1.60;;;29.80;34.70;;;;;;5033402;28;20028;-65
2022/05/16 13:24:20;;;;;;;9.10;2.10;;;30.00;34.30;;;;;;5032233;28;20040;-66
2022/05/16 13:29:34;;;;;;;10.68;1.83;;;30.50;33.80;;;;;;5040059;28;20079;-66
2022/05/16 13:32:09;;;;;;;14.35;1.98;;;30.60;33.90;;;;;;5042043;28;20476;-66
2022/05/16 13:34:36;;;;;;;24.00;2.17;;;30.50;33.00;;;;;;5035893;28;20116;-66
2022/05/16 13:37:06;;;;;;;28.35;2.30;;;30.60;32.70;;;;;;5033345;28;20422;-66
2022/05/16 13:39:41;;;;;;;8.20;1.58;;;30.30;32.80;;;;;;5040041;28;20021;-65